Time;durP1;ratioP1;P1;durP2;ratioP2;P2;SDS_P1;SDS_P2;PMS_P1;PMS_P2;Temp;Humidity;BMP_temperature;BMP_pressure;BME280_temperature;BME280_humidity;BME280_pressure;Samples;Min_cycle;Max_cycle;Signal;HPM_P1;HPM_P2
2021/11/23 00:00:59;;;;;;;39.75;19.83;;;9.50;76.50;;;;;;4608675;28;20045;-71
2021/11/23 00:03:18;;;;;;;39.38;20.75;;;9.50;76.60;;;;;;4626886;28;20197;-72
2021/11/23 00:05:35;;;;;;;41.45;20.55;;;9.50;76.60;;;;;;4626668;28;20114;-71
2021/11/23 00:07:51;;;;;;;37.70;20.95;;;9.50;76.60;;;;;;4608916;28;20072;-72
2021/11/23 00:10:09;;;;;;;37.78;19.80;;;9.50;76.60;;;;;;4626759;28;20075;-72
2021/11/23 00:12:29;;;;;;;35.78;20.05;;;9.50;77.40;;;;;;4608560;28;20307;-71
2021/11/23 00:14:47;;;;;;;38.85;20.80;;;9.50;76.70;;;;;;4613006;28;20155;-71
2021/11/23 00:17:03;;;;;;;37.75;20.33;;;9.50;76.70;;;;;;4611583;28;20069;-73
2021/11/23 00:19:20;;;;;;;37.40;20.13;;;9.50;76.60;;;;;;4631027;28;20071;-72
2021/11/23 00:21:36;;;;;;;40.00;19.95;;;9.50;76.60;;;;;;4611857;28;20049;-72
2021/11/23 00:23:53;;;;;;;36.22;19.95;;;9.50;76.70;;;;;;4630440;28;20407;-72
2021/11/23 00:26:09;;;;;;;37.03;19.52;;;9.50;77.50;;;;;;4611696;28;20514;-72
2021/11/23 00:28:27;;;;;;;38.53;19.48;;;9.60;76.70;;;;;;4613083;28;20121;-72
2021/11/23 00:30:45;;;;;;;36.33;19.13;;;9.60;76.80;;;;;;4611364;28;20041;-72
2021/11/23 00:33:03;;;;;;;37.38;19.17;;;9.60;76.80;;;;;;4631262;28;20076;-72
2021/11/23 00:35:19;;;;;;;35.67;19.85;;;9.60;76.70;;;;;;4629358;28;20053;-72
2021/11/23 00:37:35;;;;;;;38.80;21.63;;;9.60;76.70;;;;;;4612511;28;20053;-72
2021/11/23 00:39:53;;;;;;;42.40;20.83;;;9.60;76.70;;;;;;4629381;28;20634;-72
2021/11/23 00:42:10;;;;;;;36.28;18.33;;;9.60;76.70;;;;;;4630722;28;20148;-73
2021/11/23 00:44:27;;;;;;;37.22;20.15;;;9.70;77.40;;;;;;4611347;28;20132;-72
2021/11/23 00:46:45;;;;;;;36.45;19.83;;;9.60;76.60;;;;;;4631001;28;20060;-72
2021/11/23 00:49:01;;;;;;;37.33;18.73;;;9.70;76.60;;;;;;4630139;28;20049;-72
2021/11/23 00:51:17;;;;;;;35.70;18.67;;;9.70;76.50;;;;;;4629740;28;20044;-72
2021/11/23 00:53:35;;;;;;;37.15;19.55;;;9.70;76.50;;;;;;4611835;28;20076;-72
2021/11/23 00:55:52;;;;;;;35.42;19.58;;;9.70;76.60;;;;;;4638547;28;20032;-72
2021/11/23 00:58:08;;;;;;;32.53;19.67;;;9.70;76.50;;;;;;4646266;28;20071;-72
2021/11/23 01:00:27;;;;;;;35.85;18.45;;;9.70;76.50;;;;;;4629724;28;20057;-71
2021/11/23 01:02:46;;;;;;;36.65;20.23;;;9.70;76.40;;;;;;4628731;28;20045;-72
2021/11/23 01:05:07;;;;;;;37.53;19.73;;;9.70;76.40;;;;;;4628779;28;20052;-71
2021/11/23 01:07:24;;;;;;;40.28;21.02;;;9.70;76.40;;;;;;4630173;28;20063;-72
2021/11/23 01:09:40;;;;;;;33.05;19.25;;;9.70;76.40;;;;;;4628684;28;20045;-72
2021/11/23 01:11:57;;;;;;;39.30;20.85;;;9.70;76.40;;;;;;4612012;28;20045;-72
2021/11/23 01:14:13;;;;;;;34.67;18.85;;;9.70;76.30;;;;;;4628876;28;20037;-72
2021/11/23 01:16:31;;;;;;;36.88;20.40;;;9.70;76.20;;;;;;4635634;28;20048;-71
2021/11/23 01:18:47;;;;;;;36.63;20.05;;;9.70;76.30;;;;;;4629695;28;20511;-72
2021/11/23 01:21:05;;;;;;;41.35;22.30;;;9.70;76.40;;;;;;4641458;28;20052;-72
2021/11/23 01:23:22;;;;;;;35.25;20.23;;;9.70;76.20;;;;;;4615693;28;20467;-71
2021/11/23 01:25:38;;;;;;;40.15;20.13;;;9.70;76.30;;;;;;4633286;28;20444;-71
2021/11/23 01:27:55;;;;;;;45.60;22.80;;;9.60;76.20;;;;;;4634600;28;20448;-72
2021/11/23 01:30:14;;;;;;;34.90;20.00;;;9.60;76.00;;;;;;4626735;28;20064;-72
2021/11/23 01:32:34;;;;;;;38.85;20.88;;;9.60;76.10;;;;;;4632775;28;20053;-72
2021/11/23 01:34:51;;;;;;;37.75;20.27;;;9.60;76.20;;;;;;4633233;28;20037;-72
2021/11/23 01:37:07;;;;;;;41.92;21.10;;;9.50;76.10;;;;;;4632919;28;20491;-71
2021/11/23 01:39:24;;;;;;;41.40;20.63;;;9.50;76.00;;;;;;4632634;28;20412;-71
2021/11/23 01:41:41;;;;;;;39.47;21.08;;;9.50;76.20;;;;;;4633092;28;20103;-71
2021/11/23 01:43:57;;;;;;;38.83;20.17;;;9.40;76.40;;;;;;4632424;28;20059;-73
2021/11/23 01:46:13;;;;;;;39.88;21.35;;;9.40;76.30;;;;;;4651161;28;20416;-71
2021/11/23 01:48:34;;;;;;;37.40;20.25;;;9.40;76.40;;;;;;4632178;28;20053;-71
2021/11/23 01:50:51;;;;;;;36.95;20.30;;;9.40;76.40;;;;;;4633435;28;20048;-72
2021/11/23 01:53:08;;;;;;;35.17;20.17;;;9.40;76.30;;;;;;4631692;28;20056;-72
2021/11/23 01:55:25;;;;;;;40.60;19.58;;;9.40;76.20;;;;;;4650785;28;20050;-71
2021/11/23 01:57:42;;;;;;;36.60;19.05;;;9.40;76.20;;;;;;4629630;28;20040;-71
2021/11/23 01:59:58;;;;;;;36.88;18.80;;;9.40;76.30;;;;;;4625566;28;20045;-71
2021/11/23 02:02:16;;;;;;;32.80;18.58;;;9.30;76.20;;;;;;4623279;28;20630;-72
2021/11/23 02:04:34;;;;;;;35.78;17.65;;;9.30;76.20;;;;;;4632357;28;20045;-73
2021/11/23 02:06:51;;;;;;;33.88;18.13;;;9.30;76.20;;;;;;4649696;28;20055;-72
2021/11/23 02:09:07;;;;;;;33.67;18.33;;;9.30;76.10;;;;;;4632898;28;20075;-72
2021/11/23 02:11:23;;;;;;;33.78;17.00;;;9.30;76.10;;;;;;4631832;28;20127;-71
2021/11/23 02:13:41;;;;;;;32.60;16.92;;;9.30;76.20;;;;;;4632482;28;20120;-71
2021/11/23 02:15:58;;;;;;;32.00;16.63;;;9.30;76.30;;;;;;4650144;28;20687;-71
2021/11/23 02:18:16;;;;;;;30.00;15.68;;;9.30;76.20;;;;;;4632105;28;20045;-70
2021/11/23 02:20:34;;;;;;;27.33;14.75;;;9.30;76.10;;;;;;4632262;28;20045;-72
2021/11/23 02:22:51;;;;;;;27.40;14.95;;;9.30;75.90;;;;;;4650284;28;20072;-74
2021/11/23 02:25:09;;;;;;;24.35;13.13;;;9.30;75.70;;;;;;4650138;28;20406;-73
2021/11/23 02:27:26;;;;;;;24.95;13.15;;;9.30;75.70;;;;;;4631711;28;20501;-73
2021/11/23 02:29:43;;;;;;;25.00;12.57;;;9.30;75.60;;;;;;4632501;28;20065;-74
2021/11/23 02:32:02;;;;;;;26.45;13.07;;;9.30;75.60;;;;;;4649197;28;20391;-73
2021/11/23 02:34:19;;;;;;;22.80;13.00;;;9.30;75.60;;;;;;4632569;28;20487;-73
2021/11/23 02:36:38;;;;;;;24.45;13.75;;;9.30;75.60;;;;;;4648130;28;20482;-73
2021/11/23 02:38:55;;;;;;;25.05;13.15;;;9.30;75.50;;;;;;4650423;28;20046;-73
2021/11/23 02:41:13;;;;;;;23.17;12.07;;;9.30;75.40;;;;;;4631081;28;20081;-73
2021/11/23 02:43:31;;;;;;;24.17;12.88;;;9.30;75.30;;;;;;4632317;28;20159;-73
2021/11/23 02:45:48;;;;;;;22.25;11.65;;;9.30;75.20;;;;;;4649021;28;20119;-73
2021/11/23 02:48:08;;;;;;;22.45;11.80;;;9.40;75.20;;;;;;4632189;28;20518;-73
2021/11/23 02:50:27;;;;;;;27.70;12.57;;;9.40;75.10;;;;;;4649223;28;20068;-73
2021/11/23 02:52:47;;;;;;;19.88;10.88;;;9.40;75.00;;;;;;4631546;28;20533;-73
2021/11/23 02:55:05;;;;;;;19.75;10.57;;;9.30;74.80;;;;;;4649413;28;20063;-73
2021/11/23 02:57:25;;;;;;;21.27;10.50;;;9.30;74.80;;;;;;4631340;28;20516;-72
2021/11/23 02:59:42;;;;;;;17.35;9.82;;;9.30;74.60;;;;;;4631760;28;20045;-73
2021/11/23 03:01:58;;;;;;;16.77;9.13;;;9.20;74.60;;;;;;4631022;28;20051;-73
2021/11/23 03:04:18;;;;;;;18.48;9.48;;;9.20;74.70;;;;;;4631938;28;20496;-73
2021/11/23 03:06:34;;;;;;;18.77;9.68;;;9.20;74.70;;;;;;4630377;28;20053;-73
2021/11/23 03:08:54;;;;;;;18.17;9.60;;;9.20;74.70;;;;;;4649836;28;20075;-72
2021/11/23 03:11:13;;;;;;;19.10;10.50;;;9.20;74.70;;;;;;4648773;28;20079;-73
2021/11/23 03:13:29;;;;;;;18.13;10.15;;;9.20;74.60;;;;;;4632024;28;20049;-72
2021/11/23 03:15:46;;;;;;;19.73;11.32;;;9.20;74.50;;;;;;4648388;28;20584;-72
2021/11/23 03:18:02;;;;;;;20.50;10.50;;;9.20;74.40;;;;;;4631809;28;20523;-72
2021/11/23 03:20:21;;;;;;;17.95;9.52;;;9.20;74.20;;;;;;4648457;28;20052;-72
2021/11/23 03:22:37;;;;;;;19.08;10.32;;;9.20;74.10;;;;;;4649533;28;20060;-72
2021/11/23 03:24:55;;;;;;;20.08;10.18;;;9.30;74.20;;;;;;4648472;28;20498;-72
2021/11/23 03:27:13;;;;;;;19.60;9.57;;;9.20;74.10;;;;;;4649412;28;20143;-73
2021/11/23 03:29:30;;;;;;;18.98;9.85;;;9.30;74.20;;;;;;4648953;28;20071;-73
2021/11/23 03:31:46;;;;;;;19.70;10.32;;;9.30;74.10;;;;;;4648966;28;20048;-74
2021/11/23 03:34:03;;;;;;;15.73;9.38;;;9.30;74.00;;;;;;4648993;28;20098;-73
2021/11/23 03:36:19;;;;;;;17.45;9.75;;;9.30;74.00;;;;;;4630952;28;20053;-74
2021/11/23 03:38:36;;;;;;;16.58;9.25;;;9.30;73.70;;;;;;4649135;28;20048;-73
2021/11/23 03:40:54;;;;;;;15.48;9.00;;;9.20;73.30;;;;;;4630621;28;20060;-73
2021/11/23 03:43:13;;;;;;;17.48;9.63;;;9.20;73.10;;;;;;4649292;28;20051;-73
2021/11/23 03:45:32;;;;;;;16.42;8.90;;;9.10;73.30;;;;;;4630195;28;20132;-73
2021/11/23 03:47:49;;;;;;;18.95;9.60;;;9.10;73.40;;;;;;4649229;28;20051;-74
2021/11/23 03:50:08;;;;;;;16.98;8.95;;;9.00;73.10;;;;;;4630016;28;20045;-73
2021/11/23 03:52:25;;;;;;;14.73;9.10;;;9.00;73.10;;;;;;4631339;28;20565;-73
2021/11/23 03:54:42;;;;;;;17.35;9.07;;;8.90;73.10;;;;;;4630003;28;20041;-73
2021/11/23 03:57:00;;;;;;;17.00;9.65;;;8.90;73.80;;;;;;4631315;28;20458;-73
2021/11/23 03:59:16;;;;;;;17.48;10.00;;;8.90;73.00;;;;;;4630028;28;20570;-73
2021/11/23 04:01:33;;;;;;;17.10;9.95;;;8.80;73.00;;;;;;4631236;28;20128;-73
2021/11/23 04:03:49;;;;;;;15.82;8.70;;;8.80;73.00;;;;;;4630276;28;20037;-73
2021/11/23 04:06:08;;;;;;;14.70;8.60;;;8.80;73.10;;;;;;4630994;28;20073;-73
2021/11/23 04:08:25;;;;;;;17.13;9.20;;;8.80;73.00;;;;;;4648423;28;20063;-73
2021/11/23 04:10:41;;;;;;;17.08;8.43;;;8.80;72.90;;;;;;4648858;28;20049;-74
2021/11/23 04:12:59;;;;;;;16.33;8.50;;;8.80;72.90;;;;;;4648520;28;20430;-73
2021/11/23 04:15:16;;;;;;;16.27;8.65;;;8.80;72.80;;;;;;4630453;28;20045;-74
2021/11/23 04:17:32;;;;;;;15.93;9.43;;;8.80;72.70;;;;;;4630973;28;20045;-73
2021/11/23 04:19:51;;;;;;;17.90;8.88;;;8.80;72.70;;;;;;4648259;28;20985;-73
2021/11/23 04:22:09;;;;;;;17.92;8.52;;;8.80;72.70;;;;;;4630968;28;20120;-73
2021/11/23 04:24:26;;;;;;;16.30;8.57;;;8.80;72.60;;;;;;4629899;28;20069;-73
2021/11/23 04:26:43;;;;;;;17.67;8.95;;;8.80;73.30;;;;;;4648970;28;20499;-74
2021/11/23 04:29:01;;;;;;;17.23;8.88;;;8.80;72.50;;;;;;4629766;28;20407;-73
2021/11/23 04:31:17;;;;;;;14.52;7.78;;;8.80;72.50;;;;;;4631118;28;20040;-73
2021/11/23 04:33:34;;;;;;;15.98;9.32;;;8.80;72.50;;;;;;4647817;28;20076;-73
2021/11/23 04:35:51;;;;;;;17.77;9.30;;;8.80;72.50;;;;;;4649031;28;20123;-73
2021/11/23 04:38:07;;;;;;;17.95;8.60;;;8.80;72.40;;;;;;4647697;28;20047;-73
2021/11/23 04:40:24;;;;;;;18.85;9.63;;;8.80;73.20;;;;;;4630835;28;20105;-73
2021/11/23 04:42:44;;;;;;;18.23;9.10;;;8.80;72.30;;;;;;4630103;28;20455;-73
2021/11/23 04:45:02;;;;;;;18.60;8.02;;;8.80;72.20;;;;;;4630695;28;20438;-73
2021/11/23 04:47:18;;;;;;;14.32;7.78;;;8.80;72.30;;;;;;4629916;28;20074;-73
2021/11/23 04:49:34;;;;;;;15.63;8.52;;;8.80;72.30;;;;;;4630319;28;20410;-73
2021/11/23 04:51:51;;;;;;;18.10;8.77;;;8.80;72.10;;;;;;4629931;28;20049;-73
2021/11/23 04:54:10;;;;;;;14.93;8.32;;;8.80;72.90;;;;;;4630283;28;20448;-73
2021/11/23 04:56:27;;;;;;;16.35;9.45;;;8.80;72.00;;;;;;4630321;28;20045;-73
2021/11/23 04:58:43;;;;;;;18.25;9.00;;;8.80;71.90;;;;;;4648065;28;20048;-73
2021/11/23 05:01:01;;;;;;;14.68;8.43;;;8.80;71.80;;;;;;4651935;28;20075;-72
2021/11/23 05:03:17;;;;;;;19.65;8.38;;;8.80;71.80;;;;;;4651164;28;20049;-73
2021/11/23 05:05:34;;;;;;;15.07;7.63;;;8.80;71.70;;;;;;4634078;28;20053;-73
2021/11/23 05:07:51;;;;;;;15.40;8.80;;;8.80;72.30;;;;;;4650967;28;20080;-73
2021/11/23 05:10:09;;;;;;;16.52;8.70;;;8.80;71.40;;;;;;4633991;28;20533;-73
2021/11/23 05:12:26;;;;;;;17.05;8.27;;;8.70;71.30;;;;;;4632620;28;20051;-73
2021/11/23 05:14:42;;;;;;;16.20;8.60;;;8.70;71.30;;;;;;4651964;28;20125;-73
2021/11/23 05:17:00;;;;;;;13.80;8.20;;;8.60;71.30;;;;;;4632472;28;20040;-73
2021/11/23 05:19:16;;;;;;;17.75;8.38;;;8.60;71.40;;;;;;4633694;28;20051;-73
2021/11/23 05:21:33;;;;;;;14.05;7.90;;;8.60;71.40;;;;;;4650546;28;20044;-73
2021/11/23 05:23:49;;;;;;;17.75;8.80;;;8.60;71.20;;;;;;4633516;28;20053;-73
2021/11/23 05:26:06;;;;;;;17.58;8.55;;;8.60;71.20;;;;;;4649749;28;20111;-72
2021/11/23 05:28:22;;;;;;;16.90;8.48;;;8.60;71.10;;;;;;4633339;28;20041;-73
2021/11/23 05:30:39;;;;;;;16.67;8.60;;;8.50;71.70;;;;;;4631169;28;20059;-73
2021/11/23 05:32:56;;;;;;;16.15;8.77;;;8.50;70.90;;;;;;4620291;28;20525;-73
2021/11/23 05:35:13;;;;;;;14.82;8.32;;;8.50;70.80;;;;;;4650874;28;20079;-73
2021/11/23 05:37:30;;;;;;;15.50;8.25;;;8.50;70.80;;;;;;4650807;28;20041;-73
2021/11/23 05:39:46;;;;;;;20.08;8.23;;;8.50;70.70;;;;;;4632992;28;20049;-73
2021/11/23 05:42:03;;;;;;;17.67;8.55;;;8.40;70.70;;;;;;4632470;28;20480;-73
2021/11/23 05:44:22;;;;;;;15.88;7.80;;;8.40;70.60;;;;;;4651097;28;20049;-73
2021/11/23 05:46:40;;;;;;;16.08;8.95;;;8.30;70.60;;;;;;4632139;28;20479;-73
2021/11/23 05:48:58;;;;;;;15.35;8.00;;;8.30;70.70;;;;;;4633111;28;20076;-72
2021/11/23 05:51:15;;;;;;;17.45;7.95;;;8.30;70.70;;;;;;4649706;28;20048;-71
2021/11/23 05:53:32;;;;;;;15.30;8.40;;;8.30;70.60;;;;;;4651005;28;20060;-72
2021/11/23 05:55:49;;;;;;;14.00;7.25;;;8.20;70.40;;;;;;4648463;28;20530;-72
2021/11/23 05:58:05;;;;;;;19.83;8.60;;;8.20;70.50;;;;;;4651130;28;20052;-73
2021/11/23 06:00:22;;;;;;;19.73;9.65;;;8.20;70.40;;;;;;4649834;28;20045;-73
2021/11/23 06:02:38;;;;;;;19.17;8.73;;;8.10;70.30;;;;;;4632930;28;20064;-72
2021/11/23 06:04:59;;;;;;;15.07;8.20;;;8.10;70.30;;;;;;4649983;28;20383;-71
2021/11/23 06:07:15;;;;;;;15.32;8.38;;;8.00;70.40;;;;;;4633009;28;20049;-72
2021/11/23 06:09:32;;;;;;;17.98;8.25;;;8.00;70.50;;;;;;4632159;28;20072;-72
2021/11/23 06:11:48;;;;;;;18.60;8.80;;;8.00;70.50;;;;;;4632488;28;20037;-72
2021/11/23 06:14:05;;;;;;;16.40;8.05;;;8.00;70.50;;;;;;4632123;28;20053;-72
2021/11/23 06:16:21;;;;;;;16.80;9.07;;;8.00;70.40;;;;;;4650114;28;20041;-72
2021/11/23 06:18:37;;;;;;;20.80;8.55;;;8.10;70.30;;;;;;4632205;28;20048;-72
2021/11/23 06:20:55;;;;;;;17.00;8.25;;;8.10;70.20;;;;;;4631813;28;20132;-72
2021/11/23 06:23:14;;;;;;;17.05;8.40;;;8.10;70.00;;;;;;4640814;28;20084;-72
2021/11/23 06:25:31;;;;;;;18.58;8.27;;;8.20;70.00;;;;;;4613404;28;20049;-73
2021/11/23 06:27:47;;;;;;;17.30;8.50;;;8.20;69.90;;;;;;4632137;28;20033;-73
2021/11/23 06:30:06;;;;;;;17.55;8.57;;;8.20;69.70;;;;;;4613039;28;20499;-73
2021/11/23 06:32:23;;;;;;;17.42;8.55;;;8.20;69.60;;;;;;4632295;28;20411;-72
2021/11/23 06:34:39;;;;;;;15.73;8.57;;;8.20;69.40;;;;;;4630730;28;20075;-72
2021/11/23 06:36:58;;;;;;;18.45;8.23;;;8.20;69.40;;;;;;4632024;28;20076;-72
2021/11/23 06:39:14;;;;;;;16.10;8.23;;;8.20;69.20;;;;;;4630443;28;20047;-73
2021/11/23 06:41:30;;;;;;;17.23;8.18;;;8.20;69.20;;;;;;4650371;28;20131;-73
2021/11/23 06:43:47;;;;;;;14.77;8.15;;;8.20;69.20;;;;;;4648638;28;20068;-73
2021/11/23 06:46:04;;;;;;;15.15;8.07;;;8.20;69.20;;;;;;4649982;28;20044;-73
2021/11/23 06:48:20;;;;;;;17.85;8.90;;;8.20;69.20;;;;;;4649092;28;20079;-72
2021/11/23 06:50:37;;;;;;;15.90;8.32;;;8.20;69.10;;;;;;4649611;28;20074;-71
2021/11/23 06:52:55;;;;;;;16.17;7.93;;;8.20;69.10;;;;;;4647803;28;20422;-70
2021/11/23 06:55:11;;;;;;;17.08;7.57;;;8.20;69.10;;;;;;4649812;28;20048;-73
2021/11/23 06:57:28;;;;;;;15.85;8.23;;;8.20;69.00;;;;;;4631271;28;20080;-71
2021/11/23 06:59:45;;;;;;;15.23;8.02;;;8.20;68.90;;;;;;4649111;28;20384;-71
2021/11/23 07:02:02;;;;;;;15.40;8.52;;;8.20;68.80;;;;;;4649476;28;20040;-72
2021/11/23 07:04:19;;;;;;;15.15;8.65;;;8.20;68.70;;;;;;4649244;28;20052;-72
2021/11/23 07:06:38;;;;;;;21.13;9.60;;;8.20;68.50;;;;;;4649796;28;20047;-73
2021/11/23 07:08:55;;;;;;;39.00;15.38;;;8.20;68.40;;;;;;4630680;28;20132;-72
2021/11/23 07:11:13;;;;;;;19.42;9.18;;;8.20;68.30;;;;;;4631770;28;20073;-72
2021/11/23 07:13:30;;;;;;;15.88;7.85;;;8.20;68.20;;;;;;4630467;28;20041;-74
2021/11/23 07:15:46;;;;;;;16.35;7.70;;;8.20;68.00;;;;;;4649523;28;20438;-72
2021/11/23 07:18:03;;;;;;;16.42;8.73;;;8.20;67.80;;;;;;4630062;28;20076;-73
2021/11/23 07:20:20;;;;;;;21.52;8.50;;;8.20;67.60;;;;;;4648189;28;20055;-71
2021/11/23 07:22:36;;;;;;;18.48;8.63;;;8.10;67.70;;;;;;4646529;28;20190;-72
2021/11/23 07:24:54;;;;;;;13.43;7.88;;;8.10;67.70;;;;;;4629447;28;20068;-72
2021/11/23 07:27:11;;;;;;;14.35;8.35;;;8.10;67.60;;;;;;4624579;28;20135;-72
2021/11/23 07:29:27;;;;;;;17.05;8.45;;;8.10;67.60;;;;;;4628857;28;20522;-72
2021/11/23 07:31:43;;;;;;;15.73;8.45;;;8.00;67.30;;;;;;4628352;28;20060;-71
2021/11/23 07:34:02;;;;;;;18.10;9.20;;;8.00;67.40;;;;;;4610769;28;20072;-71
2021/11/23 07:36:19;;;;;;;15.40;9.02;;;8.00;67.40;;;;;;4628533;28;20151;-71
2021/11/23 07:38:36;;;;;;;15.95;9.00;;;8.00;67.40;;;;;;4629543;28;20071;-71
2021/11/23 07:40:54;;;;;;;17.15;9.68;;;8.00;67.30;;;;;;4629048;28;20052;-71
2021/11/23 07:43:10;;;;;;;17.08;8.95;;;8.00;67.30;;;;;;4630126;28;20072;-72
2021/11/23 07:45:27;;;;;;;17.55;9.55;;;8.00;67.20;;;;;;4630371;28;20573;-72
2021/11/23 07:47:47;;;;;;;15.05;8.60;;;8.00;67.10;;;;;;4638771;28;20048;-72
2021/11/23 07:50:04;;;;;;;39.28;20.63;;;8.00;67.00;;;;;;4642448;28;20076;-72
2021/11/23 07:52:23;;;;;;;18.60;9.73;;;8.00;67.10;;;;;;4620034;28;20119;-72
2021/11/23 07:54:39;;;;;;;17.58;8.88;;;8.00;67.10;;;;;;4641259;28;20040;-72
2021/11/23 07:56:57;;;;;;;18.90;9.48;;;8.10;66.80;;;;;;4629784;28;20041;-71
2021/11/23 07:59:14;;;;;;;18.70;9.07;;;8.10;66.40;;;;;;4631062;28;20069;-72
2021/11/23 08:01:32;;;;;;;15.73;8.73;;;8.10;66.30;;;;;;4647868;28;20128;-72
2021/11/23 08:03:49;;;;;;;19.13;9.43;;;8.10;66.40;;;;;;4646559;28;20072;-71
2021/11/23 08:06:07;;;;;;;17.23;8.77;;;8.10;66.10;;;;;;4637614;28;20111;-72
2021/11/23 08:08:26;;;;;;;18.85;9.65;;;8.10;66.00;;;;;;4639285;28;20043;-73
2021/11/23 08:10:43;;;;;;;17.77;10.10;;;8.20;65.90;;;;;;4637056;28;20047;-73
2021/11/23 08:13:01;;;;;;;19.05;9.65;;;8.20;65.80;;;;;;4643466;28;20064;-73
2021/11/23 08:15:18;;;;;;;18.38;9.55;;;8.20;65.80;;;;;;4625782;28;20055;-73
2021/11/23 08:17:37;;;;;;;19.25;9.18;;;8.20;65.60;;;;;;4632718;28;20128;-72
2021/11/23 08:19:56;;;;;;;17.00;8.68;;;8.20;65.60;;;;;;4620074;28;20106;-73
2021/11/23 08:22:13;;;;;;;17.98;8.80;;;8.20;66.40;;;;;;4617505;28;20483;-72
2021/11/23 08:24:33;;;;;;;19.13;9.75;;;8.20;65.60;;;;;;4630894;28;20051;-72
2021/11/23 08:26:49;;;;;;;164.55;87.32;;;8.20;66.20;;;;;;4619573;28;20076;-71
2021/11/23 08:29:07;;;;;;;30.90;17.17;;;8.30;65.40;;;;;;4616965;28;20780;-73
2021/11/23 08:31:26;;;;;;;19.02;9.88;;;8.30;65.40;;;;;;4616337;28;20072;-71
2021/11/23 08:33:43;;;;;;;16.33;8.98;;;8.30;65.10;;;;;;4620085;28;20124;-71
2021/11/23 08:35:59;;;;;;;18.85;9.82;;;8.30;65.00;;;;;;4634117;28;20045;-72
2021/11/23 08:38:18;;;;;;;17.92;10.07;;;8.30;64.90;;;;;;4624349;28;20597;-72
2021/11/23 08:40:37;;;;;;;17.38;9.80;;;8.30;64.80;;;;;;4618594;28;20044;-71
2021/11/23 08:42:58;;;;;;;16.77;9.50;;;8.30;64.70;;;;;;4627245;28;20072;-72
2021/11/23 08:45:16;;;;;;;19.60;9.85;;;8.30;64.80;;;;;;4629911;28;20060;-72
2021/11/23 08:47:33;;;;;;;18.27;9.85;;;8.30;64.80;;;;;;4648156;28;20072;-71
2021/11/23 08:49:50;;;;;;;16.83;9.63;;;8.20;64.70;;;;;;4645616;28;20044;-72
2021/11/23 08:52:07;;;;;;;18.13;10.35;;;8.30;64.60;;;;;;4630011;28;20049;-72
2021/11/23 08:54:25;;;;;;;19.33;10.10;;;8.20;64.60;;;;;;4647709;28;20040;-71
2021/11/23 08:56:51;;;;;;;17.17;10.20;;;8.30;64.40;;;;;;4641201;28;20043;-71
2021/11/23 08:59:12;;;;;;;21.00;10.00;;;8.20;64.20;;;;;;4648313;28;20044;-72
2021/11/23 09:01:31;;;;;;;18.80;10.00;;;8.30;64.30;;;;;;4629187;28;20053;-72
2021/11/23 09:03:47;;;;;;;15.95;9.15;;;8.30;64.40;;;;;;4648393;28;20127;-71
2021/11/23 09:06:04;;;;;;;17.30;9.43;;;8.40;64.40;;;;;;4629052;28;20150;-70
2021/11/23 09:08:20;;;;;;;16.55;8.52;;;8.40;64.10;;;;;;4630224;28;20566;-70
2021/11/23 09:10:40;;;;;;;14.95;8.50;;;8.50;63.80;;;;;;4629150;28;20479;-71
2021/11/23 09:12:58;;;;;;;15.07;7.97;;;8.70;63.60;;;;;;4647763;28;20519;-72
2021/11/23 09:15:15;;;;;;;18.23;9.55;;;8.80;63.10;;;;;;4647370;28;20032;-72
2021/11/23 09:17:33;;;;;;;15.95;8.70;;;8.80;62.60;;;;;;4629974;28;20596;-73
2021/11/23 09:19:50;;;;;;;16.00;8.57;;;8.80;62.40;;;;;;4646767;28;20067;-72
2021/11/23 09:22:07;;;;;;;17.05;8.98;;;8.80;62.10;;;;;;4628965;28;20044;-72
2021/11/23 09:24:24;;;;;;;17.17;8.93;;;8.80;62.10;;;;;;4629182;28;20515;-72
2021/11/23 09:26:41;;;;;;;17.73;9.15;;;8.80;62.00;;;;;;4643564;28;20120;-73
2021/11/23 09:28:58;;;;;;;16.35;9.30;;;8.80;61.80;;;;;;4623357;28;20096;-73
2021/11/23 09:31:14;;;;;;;15.88;9.25;;;8.80;61.80;;;;;;4619280;28;20048;-71
2021/11/23 09:33:32;;;;;;;15.95;8.85;;;8.80;61.80;;;;;;4638670;28;20036;-71
2021/11/23 09:35:49;;;;;;;15.85;8.68;;;8.80;61.70;;;;;;4640078;28;20048;-71
2021/11/23 09:38:08;;;;;;;23.60;11.27;;;8.80;61.50;;;;;;4636978;28;20486;-71
2021/11/23 09:40:24;;;;;;;20.52;9.93;;;8.90;61.20;;;;;;4635268;28;20410;-71
2021/11/23 09:42:42;;;;;;;18.63;7.72;;;8.90;61.00;;;;;;4643103;28;20079;-71
2021/11/23 09:44:58;;;;;;;17.83;8.35;;;8.90;60.90;;;;;;4638743;28;20126;-73
2021/11/23 09:47:15;;;;;;;15.43;8.32;;;8.90;60.80;;;;;;4618719;28;20044;-71
2021/11/23 09:49:33;;;;;;;18.98;9.45;;;8.80;60.60;;;;;;4636906;28;20498;-70
2021/11/23 09:51:50;;;;;;;22.33;9.35;;;8.80;60.80;;;;;;4614902;28;20131;-71
2021/11/23 09:54:09;;;;;;;16.42;9.38;;;8.80;60.80;;;;;;4610233;28;20088;-73
2021/11/23 09:56:28;;;;;;;15.30;9.00;;;8.90;60.80;;;;;;4624871;28;20037;-73
2021/11/23 09:58:45;;;;;;;17.90;9.25;;;8.90;60.80;;;;;;4618508;28;20041;-71
2021/11/23 10:01:05;;;;;;;18.02;9.55;;;8.90;60.70;;;;;;4637634;28;20040;-70
2021/11/23 10:03:27;;;;;;;18.73;9.48;;;9.00;60.70;;;;;;4610898;28;20038;-71
2021/11/23 10:05:45;;;;;;;16.38;9.32;;;9.00;60.50;;;;;;4628415;28;20446;-71
2021/11/23 10:08:13;;;;;;;17.70;9.93;;;9.10;60.40;;;;;;4610503;28;20042;-72
2021/11/23 10:10:30;;;;;;;17.98;10.45;;;9.10;60.20;;;;;;4610486;28;20053;-72
2021/11/23 10:12:54;;;;;;;16.38;8.43;;;9.10;60.30;;;;;;4628456;28;20538;-69
2021/11/23 10:15:16;;;;;;;17.48;9.18;;;9.10;59.70;;;;;;4610009;28;20587;-73
2021/11/23 10:17:32;;;;;;;17.48;9.40;;;9.10;59.80;;;;;;4611013;28;20076;-71
2021/11/23 10:19:49;;;;;;;15.38;8.80;;;9.10;59.70;;;;;;4609080;28;20124;-72
2021/11/23 10:22:28;;;;;;;17.92;10.25;;;9.10;59.70;;;;;;4628860;28;20049;-72
2021/11/23 10:24:44;;;;;;;16.33;9.05;;;9.10;59.50;;;;;;4627415;28;20051;-72
2021/11/23 10:27:17;;;;;;;19.65;9.38;;;9.10;58.80;;;;;;4610805;28;20075;-72
2021/11/23 10:29:49;;;;;;;17.80;8.52;;;9.10;59.10;;;;;;4628366;28;20079;-70
2021/11/23 10:32:14;;;;;;;15.82;8.68;;;9.10;59.00;;;;;;4623828;28;20045;-73
2021/11/23 10:34:34;;;;;;;13.65;8.18;;;9.20;58.80;;;;;;4636204;28;20068;-70
2021/11/23 10:36:54;;;;;;;16.67;8.03;;;9.20;58.90;;;;;;4646504;28;20141;-70
2021/11/23 10:39:15;;;;;;;13.07;7.18;;;9.20;58.60;;;;;;4629034;28;20041;-70
2021/11/23 10:41:34;;;;;;;15.13;8.03;;;9.20;58.10;;;;;;4625526;28;20055;-71
2021/11/23 10:43:51;;;;;;;15.27;7.38;;;9.20;58.00;;;;;;4610635;28;20484;-71
2021/11/23 10:46:14;;;;;;;13.48;7.70;;;9.20;57.80;;;;;;4633830;28;20067;-72
2021/11/23 10:48:31;;;;;;;16.98;9.30;;;9.20;57.50;;;;;;4628656;28;20068;-71
2021/11/23 10:51:03;;;;;;;12.50;6.90;;;9.20;57.80;;;;;;4645586;28;20692;-71
2021/11/23 10:53:23;;;;;;;;;;;9.20;57.50;;;;;;4642985;28;20056;-71
2021/11/23 10:55:44;;;;;;;10.88;6.45;;;9.20;56.70;;;;;;4627130;28;19927;-71
2021/11/23 10:58:03;;;;;;;11.75;6.75;;;9.20;56.70;;;;;;4627244;28;20062;-70
2021/11/23 11:00:20;;;;;;;10.77;6.50;;;9.10;57.00;;;;;;4627554;28;20044;-70
2021/11/23 11:02:39;;;;;;;13.32;7.63;;;9.10;57.00;;;;;;4626905;28;20132;-71
2021/11/23 11:04:55;;;;;;;11.07;6.70;;;9.20;56.70;;;;;;4609637;28;20053;-70
2021/11/23 11:07:13;;;;;;;11.88;7.40;;;9.20;56.70;;;;;;4609769;28;20439;-69
2021/11/23 11:09:32;;;;;;;12.48;7.13;;;9.20;56.90;;;;;;4609208;28;20096;-71
2021/11/23 11:11:50;;;;;;;12.02;7.45;;;9.30;57.10;;;;;;4627492;28;20051;-68
2021/11/23 11:14:07;;;;;;;10.65;6.50;;;9.40;57.00;;;;;;4626397;28;20037;-71
2021/11/23 11:16:27;;;;;;;11.20;6.85;;;9.40;56.80;;;;;;4626846;28;20045;-71
2021/11/23 11:19:02;;;;;;;15.35;6.90;;;9.50;56.50;;;;;;4638753;28;20045;-71
2021/11/23 11:21:18;;;;;;;12.57;7.22;;;9.50;56.40;;;;;;4616346;28;20049;-71
2021/11/23 11:23:41;;;;;;;11.70;7.00;;;9.50;56.50;;;;;;4627546;28;20138;-72
2021/11/23 11:26:18;;;;;;;11.57;6.90;;;9.50;55.90;;;;;;4609187;28;20055;-72
2021/11/23 11:28:45;;;;;;;11.00;7.35;;;9.40;56.20;;;;;;4609569;28;20064;-71
2021/11/23 11:31:06;;;;;;;11.87;7.20;;;9.40;56.40;;;;;;4608958;28;20637;-72
2021/11/23 11:33:32;;;;;;;10.18;6.53;;;9.40;56.60;;;;;;4609232;28;20395;-72
2021/11/23 11:35:50;;;;;;;12.50;7.40;;;9.50;56.40;;;;;;4627103;28;20521;-71
2021/11/23 11:38:27;;;;;;;32.88;18.25;;;9.50;57.00;;;;;;4610077;28;20053;-70
2021/11/23 11:40:43;;;;;;;11.15;6.20;;;9.60;56.60;;;;;;4648473;28;20032;-70
2021/11/23 11:43:06;;;;;;;10.52;6.45;;;9.60;56.20;;;;;;4623664;28;20060;-72
2021/11/23 11:45:27;;;;;;;10.82;6.72;;;9.70;56.00;;;;;;4624129;28;20044;-69
2021/11/23 11:47:45;;;;;;;14.50;6.60;;;9.80;55.90;;;;;;4626628;28;20554;-72
2021/11/23 11:50:08;;;;;;;11.27;6.93;;;9.90;55.90;;;;;;4625649;28;20657;-71
2021/11/23 11:52:27;;;;;;;10.38;6.22;;;9.90;55.80;;;;;;4608340;28;20125;-72
2021/11/23 11:54:45;;;;;;;11.57;6.53;;;10.00;55.40;;;;;;4626701;28;20052;-70